createdAt,value
2023-03-22T00:00:18.752Z,99.99
2023-03-22T00:01:18.721Z,99.99
2023-03-22T00:02:18.692Z,99.99
2023-03-22T00:03:18.641Z,99.99
2023-03-22T00:04:18.708Z,99.99
2023-03-22T00:05:18.593Z,99.99
2023-03-22T00:06:18.568Z,99.99
2023-03-22T00:07:27.889Z,99.99
2023-03-22T00:08:18.499Z,99.99
2023-03-22T00:09:18.432Z,99.99
2023-03-22T00:10:18.460Z,99.99
2023-03-22T00:11:18.380Z,99.99
2023-03-22T00:12:18.342Z,99.99
2023-03-22T00:13:18.349Z,99.99
2023-03-22T00:14:18.291Z,99.99
2023-03-22T00:15:18.307Z,99.99
2023-03-22T00:16:18.240Z,99.99
2023-03-22T00:17:18.174Z,99.99
2023-03-22T00:18:18.169Z,99.99
2023-03-22T00:19:18.105Z,99.99
2023-03-22T00:20:20.589Z,99.99
2023-03-22T00:21:18.153Z,99.99
2023-03-22T00:22:18.024Z,99.99
2023-03-22T00:23:17.988Z,99.99
2023-03-22T00:24:17.958Z,99.99
2023-03-22T00:25:17.924Z,99.99
2023-03-22T00:26:17.881Z,99.99
2023-03-22T00:27:17.938Z,99.99
2023-03-22T00:28:17.798Z,99.99
2023-03-22T00:29:17.788Z,99.99
2023-03-22T00:30:17.734Z,99.99
2023-03-22T00:31:17.901Z,99.99
2023-03-22T00:32:17.752Z,99.99
2023-03-22T00:33:17.688Z,99.99
2023-03-22T00:34:17.605Z,99.99
2023-03-22T00:35:17.584Z,99.99
2023-03-22T00:36:17.538Z,99.99
2023-03-22T00:37:17.524Z,99.99
2023-03-22T00:38:17.457Z,99.99
2023-03-22T00:39:17.512Z,99.99
2023-03-22T00:40:18.355Z,99.99
2023-03-22T00:41:17.390Z,99.99
2023-03-22T00:42:17.329Z,99.99
2023-03-22T00:43:17.294Z,99.99
2023-03-22T00:44:17.259Z,99.99
2023-03-22T00:45:17.287Z,99.99
2023-03-22T00:46:17.261Z,99.99
2023-03-22T00:47:17.169Z,99.99
2023-03-22T00:48:17.190Z,99.99
2023-03-22T00:49:17.169Z,99.99
2023-03-22T00:50:17.071Z,99.99
2023-03-22T00:51:17.057Z,99.99
2023-03-22T00:52:17.033Z,99.99
2023-03-22T00:53:16.973Z,99.99
2023-03-22T00:54:17.034Z,99.99
2023-03-22T00:55:16.895Z,99.99
2023-03-22T00:56:16.903Z,99.99
2023-03-22T00:57:16.830Z,99.99
2023-03-22T00:58:16.787Z,99.99
2023-03-22T00:59:16.769Z,99.99
2023-03-22T01:00:16.785Z,99.99
2023-03-22T01:01:16.768Z,99.99
2023-03-22T01:02:16.696Z,99.99
2023-03-22T01:03:16.700Z,99.99
2023-03-22T01:04:16.608Z,99.99
2023-03-22T01:05:16.654Z,99.99
2023-03-22T01:06:16.529Z,99.99
2023-03-22T01:07:16.505Z,99.99
2023-03-22T01:08:16.512Z,99.99
2023-03-22T01:09:16.464Z,99.99
2023-03-22T01:10:16.472Z,99.99
2023-03-22T01:11:16.380Z,99.99
2023-03-22T01:12:16.316Z,99.99
2023-03-22T01:13:17.913Z,99.99
2023-03-22T01:14:16.257Z,99.99
2023-03-22T01:15:16.217Z,99.99
2023-03-22T01:16:16.375Z,99.99
2023-03-22T01:17:16.178Z,99.99
2023-03-22T01:18:16.145Z,99.99
2023-03-22T01:19:16.093Z,99.99
2023-03-22T01:20:16.051Z,99.99
2023-03-22T01:21:16.063Z,99.99
2023-03-22T01:22:16.048Z,99.99
2023-03-22T01:23:15.989Z,99.99
2023-03-22T01:24:15.949Z,99.99
2023-03-22T01:25:15.880Z,99.99
2023-03-22T01:26:15.859Z,99.99
2023-03-22T01:27:15.828Z,99.99
2023-03-22T01:28:15.846Z,99.99
2023-03-22T01:29:15.760Z,99.99
2023-03-22T01:30:15.727Z,99.99
2023-03-22T01:31:15.778Z,99.99
2023-03-22T01:32:15.673Z,99.99
2023-03-22T01:33:15.628Z,99.99
2023-03-22T01:34:15.581Z,99.99
2023-03-22T01:35:15.574Z,99.99
2023-03-22T01:36:15.572Z,99.99
2023-03-22T01:37:15.514Z,99.99
2023-03-22T01:38:15.516Z,99.99
2023-03-22T01:39:15.410Z,99.99
2023-03-22T01:40:15.385Z,99.99
2023-03-22T01:41:15.372Z,99.99
2023-03-22T01:42:15.408Z,99.99
2023-03-22T01:43:15.294Z,99.99
2023-03-22T01:44:15.261Z,99.99
2023-03-22T01:45:15.242Z,99.99
2023-03-22T01:46:15.239Z,99.99
2023-03-22T01:47:15.178Z,99.99
2023-03-22T01:48:15.662Z,99.99
2023-03-22T01:49:15.123Z,99.99
2023-03-22T01:50:15.061Z,99.99
2023-03-22T01:51:15.034Z,99.99
2023-03-22T01:52:14.990Z,99.99
2023-03-22T01:53:14.962Z,99.99
2023-03-22T01:54:14.989Z,99.99
2023-03-22T01:55:14.886Z,99.99
2023-03-22T01:56:14.875Z,99.99
2023-03-22T01:57:14.834Z,99.99
2023-03-22T01:58:14.776Z,99.99
2023-03-22T01:59:14.759Z,99.99
2023-03-22T02:00:14.766Z,99.99
2023-03-22T02:01:14.726Z,99.99
2023-03-22T02:02:14.665Z,99.99
2023-03-22T02:03:14.625Z,99.99
2023-03-22T02:04:14.619Z,99.99
2023-03-22T02:05:14.556Z,99.99
2023-03-22T02:06:14.589Z,99.99
2023-03-22T02:07:14.514Z,99.99
2023-03-22T02:08:14.444Z,99.99
2023-03-22T02:09:14.410Z,99.99
2023-03-22T02:10:14.378Z,99.99
2023-03-22T02:11:14.419Z,99.99
2023-03-22T02:12:14.331Z,99.99
2023-03-22T02:13:14.308Z,99.99
2023-03-22T02:14:14.263Z,99.99
2023-03-22T02:15:14.228Z,99.99
2023-03-22T02:16:14.315Z,99.99
2023-03-22T02:17:14.152Z,99.99
2023-03-22T02:18:14.116Z,99.99
2023-03-22T02:19:14.074Z,99.99
2023-03-22T02:20:14.046Z,99.99
2023-03-22T02:21:14.102Z,99.99
2023-03-22T02:22:13.977Z,99.99
2023-03-22T02:23:13.948Z,99.99
2023-03-22T02:24:13.914Z,99.99
2023-03-22T02:25:13.917Z,99.99
2023-03-22T02:26:13.840Z,99.99
2023-03-22T02:27:13.898Z,99.99
2023-03-22T02:28:13.785Z,99.99
2023-03-22T02:29:13.762Z,99.99
2023-03-22T02:30:13.772Z,99.99
2023-03-22T02:31:13.716Z,99.99
2023-03-22T02:32:13.629Z,99.99
2023-03-22T02:33:13.613Z,99.99
2023-03-22T02:34:13.571Z,99.99
2023-03-22T02:35:13.551Z,99.99
2023-03-22T02:36:13.580Z,99.99
2023-03-22T02:37:13.496Z,99.99
2023-03-22T02:38:13.444Z,99.99
2023-03-22T02:39:13.502Z,99.99
2023-03-22T02:40:13.372Z,99.99
2023-03-22T02:41:13.392Z,99.99
2023-03-22T02:42:13.320Z,99.99
2023-03-22T02:43:13.326Z,99.99
2023-03-22T02:44:13.236Z,99.99
2023-03-22T02:45:13.225Z,99.99
2023-03-22T02:46:13.236Z,99.99
2023-03-22T02:47:13.166Z,99.99
2023-03-22T02:48:13.219Z,99.99
2023-03-22T02:49:13.068Z,99.99
2023-03-22T02:50:13.066Z,99.99
2023-03-22T02:51:13.028Z,99.99
2023-03-22T02:52:13.037Z,99.99
2023-03-22T02:53:12.946Z,99.99
2023-03-22T02:54:12.924Z,99.99
2023-03-22T02:55:12.968Z,99.99
2023-03-22T02:56:12.874Z,99.99
2023-03-22T02:57:12.790Z,99.99
2023-03-22T02:58:14.384Z,99.99
2023-03-22T02:59:12.730Z,99.99
2023-03-22T03:00:12.696Z,99.99
2023-03-22T03:01:12.715Z,99.99
2023-03-22T03:02:12.661Z,99.99
2023-03-22T03:03:12.656Z,99.99
2023-03-22T03:04:12.560Z,99.99
2023-03-22T03:05:12.569Z,99.99
2023-03-22T03:06:12.532Z,99.99
2023-03-22T03:07:12.458Z,99.99
2023-03-22T03:08:12.427Z,99.99
2023-03-22T03:09:12.519Z,99.99
2023-03-22T03:10:12.373Z,99.99
2023-03-22T03:11:12.347Z,99.99
2023-03-22T03:12:12.295Z,99.99
2023-03-22T03:13:12.246Z,99.99
2023-03-22T03:14:12.312Z,99.99
2023-03-22T03:15:12.210Z,99.99
2023-03-22T03:16:12.208Z,99.99
2023-03-22T03:17:12.122Z,99.99
2023-03-22T03:18:12.153Z,99.99
2023-03-22T03:19:12.069Z,99.99
2023-03-22T03:20:12.072Z,99.99
2023-03-22T03:21:11.989Z,99.99
2023-03-22T03:22:11.982Z,99.99
2023-03-22T03:23:11.913Z,99.99
2023-03-22T03:24:11.953Z,99.99
2023-03-22T03:25:11.846Z,99.99
2023-03-22T03:26:11.825Z,99.99
2023-03-22T03:27:11.789Z,99.99
2023-03-22T03:28:11.747Z,99.99
2023-03-22T03:29:11.777Z,99.99
2023-03-22T03:30:11.690Z,99.99
2023-03-22T03:31:11.717Z,99.99
2023-03-22T03:32:11.604Z,99.99
2023-03-22T03:33:11.587Z,99.99
2023-03-22T03:34:11.555Z,99.99
2023-03-22T03:35:11.565Z,99.99
2023-03-22T03:36:11.510Z,99.99
2023-03-22T03:37:11.448Z,99.99
2023-03-22T03:38:11.401Z,99.99
2023-03-22T03:39:11.374Z,99.99
2023-03-22T03:40:11.437Z,99.99
2023-03-22T03:41:11.335Z,99.99
2023-03-22T03:42:11.294Z,99.99
2023-03-22T03:43:11.247Z,99.99
2023-03-22T03:44:11.320Z,99.99
2023-03-22T03:45:11.164Z,99.99
2023-03-22T03:46:11.318Z,99.99
2023-03-22T03:47:11.103Z,99.99
2023-03-22T03:48:11.164Z,99.99
2023-03-22T03:49:11.095Z,99.99
2023-03-22T03:50:11.028Z,99.99
2023-03-22T03:51:10.987Z,99.99
2023-03-22T03:52:10.951Z,99.99
2023-03-22T03:53:10.921Z,99.99
2023-03-22T03:54:10.942Z,99.99
2023-03-22T03:55:10.834Z,99.99
2023-03-22T03:56:10.805Z,99.99
2023-03-22T03:57:10.792Z,99.99
2023-03-22T03:58:10.797Z,99.99
2023-03-22T03:59:10.821Z,99.99
2023-03-22T04:00:10.677Z,99.99
2023-03-22T04:01:10.638Z,99.99
2023-03-22T04:02:10.633Z,99.99
2023-03-22T04:03:10.645Z,99.99
2023-03-22T04:04:10.668Z,99.99
2023-03-22T04:05:10.505Z,99.99
2023-03-22T04:06:10.480Z,99.99
2023-03-22T04:07:10.434Z,99.99
2023-03-22T04:08:10.417Z,99.99
2023-03-22T04:09:10.471Z,99.99
2023-03-22T04:10:10.346Z,99.99
2023-03-22T04:11:10.308Z,99.99
2023-03-22T04:12:10.265Z,99.99
2023-03-22T04:13:10.239Z,99.99
2023-03-22T04:14:10.301Z,99.99
2023-03-22T04:15:10.181Z,99.99
2023-03-22T04:16:10.131Z,99.99
2023-03-22T04:17:10.096Z,99.99
2023-03-22T04:18:10.069Z,99.99
2023-03-22T04:19:10.056Z,99.99
2023-03-22T04:20:10.115Z,99.99
2023-03-22T04:21:09.986Z,99.99
2023-03-22T04:22:09.923Z,99.99
2023-03-22T04:23:09.914Z,99.99
2023-03-22T04:24:09.863Z,99.99
2023-03-22T04:25:09.909Z,99.99
2023-03-22T04:26:09.816Z,99.99
2023-03-22T04:27:09.763Z,99.99
2023-03-22T04:28:09.737Z,99.99
2023-03-22T04:29:09.727Z,99.99
2023-03-22T04:30:09.703Z,99.99
2023-03-22T04:31:09.752Z,99.99
2023-03-22T04:32:09.621Z,99.99
2023-03-22T04:33:09.595Z,99.99
2023-03-22T04:34:09.581Z,99.99
2023-03-22T04:35:09.558Z,99.99
2023-03-22T04:36:09.462Z,99.99
2023-03-22T04:37:09.567Z,99.99
2023-03-22T04:38:09.421Z,99.99
2023-03-22T04:39:09.421Z,99.99
2023-03-22T04:40:09.353Z,99.99
2023-03-22T04:41:09.291Z,99.99
2023-03-22T04:42:09.269Z,99.99
2023-03-22T04:43:09.305Z,99.99
2023-03-22T04:44:09.207Z,99.99
2023-03-22T04:45:09.171Z,99.99
2023-03-22T04:46:09.201Z,99.99
2023-03-22T04:47:09.109Z,99.99
2023-03-22T04:48:09.108Z,99.99
2023-03-22T04:49:09.081Z,99.99
2023-03-22T04:50:08.989Z,99.99
2023-03-22T04:51:08.957Z,99.99
2023-03-22T04:52:08.918Z,99.99
2023-03-22T04:53:08.887Z,99.99
2023-03-22T04:54:08.866Z,99.99
2023-03-22T04:55:08.884Z,99.99
2023-03-22T04:56:08.792Z,99.99
2023-03-22T04:57:09.709Z,99.99
2023-03-22T04:58:08.725Z,99.99
2023-03-22T04:59:08.695Z,99.99
2023-03-22T05:00:08.680Z,99.99
2023-03-22T05:01:08.711Z,99.99
2023-03-22T05:02:08.587Z,99.99
2023-03-22T05:03:08.577Z,99.99
2023-03-22T05:04:08.535Z,99.99
2023-03-22T05:05:08.489Z,99.99
2023-03-22T05:06:08.531Z,99.99
2023-03-22T05:07:08.428Z,99.99
2023-03-22T05:08:08.412Z,99.99
2023-03-22T05:09:08.364Z,99.99
2023-03-22T05:10:08.353Z,99.99
2023-03-22T05:11:08.288Z,99.99
2023-03-22T05:12:08.381Z,99.99
2023-03-22T05:13:08.224Z,99.99
2023-03-22T05:14:08.228Z,99.99
2023-03-22T05:15:08.161Z,99.99
2023-03-22T05:16:08.239Z,99.99
2023-03-22T05:17:08.093Z,99.99
2023-03-22T05:18:08.118Z,99.99
2023-03-22T05:19:08.130Z,99.99
2023-03-22T05:20:07.984Z,99.99
2023-03-22T05:21:07.998Z,99.99
2023-03-22T05:22:07.917Z,99.99
2023-03-22T05:23:07.883Z,99.99
2023-03-22T05:24:09.270Z,99.99
2023-03-22T05:25:08.101Z,99.99
2023-03-22T05:26:07.779Z,99.99
2023-03-22T05:27:08.051Z,99.99
2023-03-22T05:28:07.998Z,99.99
2023-03-22T05:29:08.200Z,99.99
2023-03-22T05:30:07.904Z,99.99
2023-03-22T05:31:07.929Z,99.99
2023-03-22T05:32:07.844Z,99.99
2023-03-22T05:33:07.658Z,99.99
2023-03-22T05:34:07.819Z,99.99
2023-03-22T05:35:07.788Z,99.99
2023-03-22T05:36:07.827Z,99.99
2023-03-22T05:37:07.711Z,99.99
2023-03-22T05:38:07.647Z,99.99
2023-03-22T05:39:07.452Z,99.99
2023-03-22T05:40:07.560Z,99.99
2023-03-22T05:41:07.572Z,99.99
2023-03-22T05:42:07.775Z,99.99
2023-03-22T05:43:07.500Z,99.99
2023-03-22T05:44:07.474Z,99.99
2023-03-22T05:45:07.445Z,99.99
2023-03-22T05:46:07.406Z,99.99
2023-03-22T05:47:07.335Z,99.99
2023-03-22T05:48:07.601Z,99.99
2023-03-22T05:49:07.311Z,99.99
2023-03-22T05:50:07.289Z,99.99
2023-03-22T05:51:07.252Z,99.99
2023-03-22T05:52:07.214Z,99.99
2023-03-22T05:53:07.173Z,99.99
2023-03-22T05:54:08.150Z,99.99
2023-03-22T05:55:07.134Z,99.99
2023-03-22T05:56:07.109Z,99.99
2023-03-22T05:57:06.995Z,99.99
2023-03-22T05:58:07.045Z,99.99
2023-03-22T05:59:07.176Z,99.99
2023-03-22T06:00:06.978Z,99.99
2023-03-22T06:01:07.135Z,99.99
2023-03-22T06:02:06.951Z,99.99
2023-03-22T06:03:06.908Z,99.99
2023-03-22T06:04:06.971Z,99.99
2023-03-22T06:05:06.773Z,99.99
2023-03-22T06:06:06.772Z,99.99
2023-03-22T06:07:06.716Z,99.99
2023-03-22T06:08:15.772Z,99.99
2023-03-22T06:09:16.557Z,99.99
2023-03-22T06:10:06.652Z,99.99
2023-03-22T06:11:06.340Z,99.99
2023-03-22T06:12:07.300Z,99.99
2023-03-22T06:13:06.528Z,99.99
2023-03-22T06:14:06.474Z,99.99
2023-03-22T06:15:06.419Z,99.99
2023-03-22T06:16:06.654Z,99.99
2023-03-22T06:17:06.314Z,99.99
2023-03-22T06:18:06.380Z,99.60
2023-03-22T06:19:06.323Z,99.35
2023-03-22T06:20:06.196Z,99.91
2023-03-22T06:21:06.250Z,99.80
2023-03-22T06:22:06.409Z,99.80
2023-03-22T06:23:06.154Z,99.86
2023-03-22T06:24:06.810Z,99.86
2023-03-22T06:25:06.132Z,99.55
2023-03-22T06:26:06.085Z,99.66
2023-03-22T06:27:06.055Z,99.99
2023-03-22T06:28:08.595Z,99.45
2023-03-22T06:29:05.885Z,99.35
2023-03-22T06:30:05.946Z,99.41
2023-03-22T06:31:05.892Z,98.90
2023-03-22T06:32:05.864Z,99.20
2023-03-22T06:33:05.823Z,98.90
2023-03-22T06:34:05.646Z,98.99
2023-03-22T06:35:05.475Z,98.90
2023-03-22T06:36:05.721Z,97.97
2023-03-22T06:37:05.692Z,98.18
2023-03-22T06:38:05.553Z,98.18
2023-03-22T06:39:05.628Z,97.82
2023-03-22T06:40:05.801Z,97.52
2023-03-22T06:41:05.514Z,97.82
2023-03-22T06:42:05.263Z,97.11
2023-03-22T06:43:07.246Z,97.21
2023-03-22T06:44:05.466Z,97.11
2023-03-22T06:45:05.415Z,96.70
2023-03-22T06:46:05.664Z,96.66
2023-03-22T06:47:05.387Z,97.41
2023-03-22T06:48:05.418Z,96.66
2023-03-22T06:49:05.300Z,96.34
2023-03-22T06:50:05.277Z,96.34
2023-03-22T06:51:04.956Z,96.66
2023-03-22T06:52:04.964Z,96.96
2023-03-22T06:53:04.872Z,96.25
2023-03-22T06:54:04.842Z,95.79
2023-03-22T06:55:04.795Z,96.30
2023-03-22T06:56:04.775Z,95.69
2023-03-22T06:57:04.733Z,96.20
2023-03-22T06:58:04.772Z,95.07
2023-03-22T06:59:04.671Z,95.48
2023-03-22T07:00:04.658Z,94.52
2023-03-22T07:01:04.619Z,94.93
2023-03-22T07:02:04.571Z,94.42
2023-03-22T07:03:04.538Z,94.52
2023-03-22T07:04:04.588Z,94.52
2023-03-22T07:05:04.483Z,94.93
2023-03-22T07:06:04.438Z,95.03
2023-03-22T07:07:04.424Z,94.58
2023-03-22T07:08:04.384Z,94.07
2023-03-22T07:09:04.350Z,93.76
2023-03-22T07:10:04.377Z,93.66
2023-03-22T07:11:04.308Z,94.12
2023-03-22T07:12:04.268Z,93.71
2023-03-22T07:13:04.230Z,93.21
2023-03-22T07:14:04.199Z,92.69
2023-03-22T07:15:04.157Z,92.65
2023-03-22T07:16:04.229Z,92.49
2023-03-22T07:17:04.099Z,92.96
2023-03-22T07:18:04.058Z,92.96
2023-03-22T07:19:04.030Z,92.45
2023-03-22T07:20:03.997Z,92.24
2023-03-22T07:21:03.979Z,92.45
2023-03-22T07:22:03.983Z,91.83
2023-03-22T07:23:03.924Z,91.74
2023-03-22T07:24:03.905Z,91.28
2023-03-22T07:25:03.829Z,91.18
2023-03-22T07:26:03.808Z,91.08
2023-03-22T07:27:03.768Z,91.49
2023-03-22T07:28:03.784Z,91.18
2023-03-22T07:29:03.701Z,90.88
2023-03-22T07:30:03.672Z,90.83
2023-03-22T07:31:03.649Z,91.03
2023-03-22T07:32:03.683Z,91.35
2023-03-22T07:33:03.572Z,90.48
2023-03-22T07:34:03.589Z,89.97
2023-03-22T07:35:03.511Z,89.67
2023-03-22T07:36:03.505Z,89.53
2023-03-22T07:37:03.441Z,89.32
2023-03-22T07:38:03.409Z,89.22
2023-03-22T07:39:03.389Z,88.61
2023-03-22T07:40:03.417Z,88.67
2023-03-22T07:41:03.321Z,88.40
2023-03-22T07:42:03.298Z,88.51
2023-03-22T07:43:03.283Z,88.67
2023-03-22T07:44:17.023Z,88.92
2023-03-22T07:45:03.270Z,88.51
2023-03-22T07:46:03.230Z,87.75
2023-03-22T07:47:03.138Z,87.96
2023-03-22T07:48:03.128Z,87.75
2023-03-22T07:49:03.142Z,87.10
2023-03-22T07:50:03.060Z,86.69
2023-03-22T07:51:03.022Z,86.69
2023-03-22T07:52:03.050Z,87.24
2023-03-22T07:53:02.988Z,87.55
2023-03-22T07:54:02.948Z,86.90
2023-03-22T07:55:02.886Z,86.90
2023-03-22T07:56:02.856Z,86.80
2023-03-22T07:57:02.830Z,86.49
2023-03-22T07:58:02.859Z,86.25
2023-03-22T07:59:02.828Z,85.84
2023-03-22T08:00:02.743Z,86.25
2023-03-22T08:01:02.733Z,86.04
2023-03-22T08:02:02.697Z,86.04
2023-03-22T08:03:03.103Z,85.74
2023-03-22T08:04:02.605Z,85.29
2023-03-22T08:05:02.585Z,85.09
2023-03-22T08:06:02.566Z,85.29
2023-03-22T08:07:02.658Z,84.64
2023-03-22T08:08:02.538Z,85.41
2023-03-22T08:09:02.449Z,84.54
2023-03-22T08:10:02.439Z,84.03
2023-03-22T08:11:02.398Z,84.03
2023-03-22T08:12:02.364Z,83.79
2023-03-22T08:13:02.389Z,83.73
2023-03-22T08:14:02.295Z,83.59
2023-03-22T08:15:02.269Z,83.28
2023-03-22T08:16:02.304Z,83.73
2023-03-22T08:17:02.231Z,83.73
2023-03-22T08:18:02.186Z,83.83
2023-03-22T08:19:02.196Z,83.73
2023-03-22T08:20:02.119Z,83.53
2023-03-22T08:21:02.086Z,83.62
2023-03-22T08:22:02.061Z,84.13
2023-03-22T08:23:02.030Z,83.69
2023-03-22T08:24:01.992Z,83.42
2023-03-22T08:25:02.043Z,83.69
2023-03-22T08:26:01.942Z,83.69
2023-03-22T08:27:01.905Z,83.79
2023-03-22T08:28:01.881Z,83.14
2023-03-22T08:29:01.849Z,82.94
2023-03-22T08:30:01.812Z,83.65
2023-03-22T08:31:01.848Z,83.65
2023-03-22T08:32:01.777Z,82.84
2023-03-22T08:33:01.732Z,83.20
2023-03-22T08:34:01.720Z,82.80
2023-03-22T08:35:01.723Z,81.68
2023-03-22T08:36:01.678Z,81.68
2023-03-22T08:37:01.652Z,81.88
2023-03-22T08:38:01.572Z,81.95
2023-03-22T08:39:01.558Z,81.99
2023-03-22T08:40:01.570Z,81.78
2023-03-22T08:41:01.477Z,82.39
2023-03-22T08:42:01.451Z,81.68
2023-03-22T08:43:01.423Z,81.85
2023-03-22T08:44:01.385Z,81.95
2023-03-22T08:45:01.440Z,80.90
2023-03-22T08:46:01.353Z,80.39
2023-03-22T08:47:03.080Z,80.65
2023-03-22T08:48:01.298Z,80.76
2023-03-22T08:49:01.250Z,79.64
2023-03-22T08:50:01.206Z,79.50
2023-03-22T08:51:01.225Z,79.36
2023-03-22T08:52:01.144Z,78.86
2023-03-22T08:53:01.123Z,79.16
2023-03-22T08:54:01.080Z,79.13
2023-03-22T08:55:01.071Z,78.15
2023-03-22T08:56:01.088Z,77.37
2023-03-22T08:57:01.006Z,78.39
2023-03-22T08:58:00.964Z,78.86
2023-03-22T08:59:00.948Z,78.35
2023-03-22T09:00:00.902Z,78.15
2023-03-22T09:01:01.018Z,77.75
2023-03-22T09:02:00.959Z,77.75
2023-03-22T09:03:00.828Z,78.01
2023-03-22T09:04:00.805Z,77.50
2023-03-22T09:05:00.774Z,76.66
2023-03-22T09:06:00.802Z,75.85
2023-03-22T09:07:00.711Z,76.02
2023-03-22T09:08:06.075Z,76.42
2023-03-22T09:09:00.674Z,75.81
2023-03-22T09:10:00.608Z,74.87
2023-03-22T09:11:00.612Z,75.37
2023-03-22T09:12:00.630Z,74.46
2023-03-22T09:13:00.529Z,74.37
2023-03-22T09:14:00.501Z,74.26
2023-03-22T09:15:00.462Z,74.33
2023-03-22T09:16:00.484Z,73.93
2023-03-22T09:17:00.645Z,74.13
2023-03-22T09:18:00.384Z,73.69
2023-03-22T09:19:00.353Z,74.02
2023-03-22T09:20:12.058Z,73.82
2023-03-22T09:21:00.299Z,73.62
2023-03-22T09:22:00.270Z,73.18
2023-03-22T09:23:00.316Z,72.98
2023-03-22T09:24:00.211Z,73.28
2023-03-22T09:25:00.200Z,73.49
2023-03-22T09:26:00.144Z,73.35
2023-03-22T09:27:00.118Z,72.54
2023-03-22T09:28:00.110Z,71.73
2023-03-22T09:29:00.141Z,72.07
2023-03-22T09:30:00.087Z,72.21
2023-03-22T09:31:00.066Z,73.42
2023-03-22T09:31:59.973Z,72.85
2023-03-22T09:32:59.960Z,73.25
2023-03-22T09:33:59.945Z,73.15
2023-03-22T09:34:59.958Z,73.55
2023-03-22T09:35:59.958Z,73.99
2023-03-22T09:36:59.836Z,75.01
2023-03-22T09:37:59.808Z,74.30
2023-03-22T09:38:59.791Z,74.19
2023-03-22T09:39:59.754Z,74.60
2023-03-22T09:40:59.770Z,75.10
2023-03-22T09:41:59.699Z,74.10
2023-03-22T09:42:59.663Z,73.69
2023-03-22T09:44:00.435Z,73.69
2023-03-22T09:44:59.615Z,74.23
2023-03-22T09:45:59.609Z,74.54
2023-03-22T09:46:59.607Z,75.24
2023-03-22T09:47:59.557Z,75.45
2023-03-22T09:48:59.512Z,75.65
2023-03-22T09:49:59.468Z,75.65
2023-03-22T09:50:59.443Z,75.10
2023-03-22T09:51:59.439Z,75.10
2023-03-22T09:52:59.434Z,74.10
2023-03-22T09:53:59.351Z,74.10
2023-03-22T09:54:59.325Z,74.10
2023-03-22T09:55:59.293Z,74.50
2023-03-22T09:56:59.261Z,73.86
2023-03-22T09:57:59.238Z,74.02
2023-03-22T09:58:59.266Z,73.79
2023-03-22T09:59:59.190Z,73.49
2023-03-22T10:00:59.277Z,72.88
2023-03-22T10:01:59.361Z,72.98
2023-03-22T10:02:59.090Z,72.61
2023-03-22T10:03:59.087Z,72.41
2023-03-22T10:04:59.099Z,73.42
2023-03-22T10:05:59.019Z,73.52
2023-03-22T10:06:58.977Z,73.18
2023-03-22T10:07:58.941Z,73.42
2023-03-22T10:08:58.925Z,73.11
2023-03-22T10:09:58.895Z,74.02
2023-03-22T10:10:58.928Z,72.38
2023-03-22T10:11:58.831Z,73.52
2023-03-22T10:12:58.799Z,73.08
2023-03-22T10:13:58.776Z,73.49
2023-03-22T10:14:58.762Z,73.25
2023-03-22T10:15:58.747Z,72.54
2023-03-22T10:16:58.768Z,72.71
2023-03-22T10:17:58.666Z,72.41
2023-03-22T10:18:58.695Z,72.67
2023-03-22T10:19:58.644Z,70.97
2023-03-22T10:20:58.563Z,70.36
2023-03-22T10:21:58.545Z,70.76
2023-03-22T10:22:58.523Z,71.67
2023-03-22T10:23:58.537Z,70.46
2023-03-22T10:24:58.458Z,69.75
2023-03-22T10:25:58.445Z,70.06
2023-03-22T10:26:58.400Z,70.46
2023-03-22T10:27:59.040Z,69.85
2023-03-22T10:28:58.344Z,69.75
2023-03-22T10:29:58.393Z,70.22
2023-03-22T10:30:58.328Z,69.69
2023-03-22T10:31:58.259Z,69.29
2023-03-22T10:32:58.461Z,68.55
2023-03-22T10:33:58.204Z,68.35
2023-03-22T10:34:58.183Z,67.94
2023-03-22T10:35:58.255Z,67.61
2023-03-22T10:36:58.122Z,67.34
2023-03-22T10:37:58.104Z,66.74
2023-03-22T10:38:58.065Z,67.37
2023-03-22T10:39:58.035Z,67.97
2023-03-22T10:40:58.012Z,68.18
2023-03-22T10:41:58.254Z,68.04
2023-03-22T10:42:57.960Z,67.54
2023-03-22T10:43:57.930Z,66.74
2023-03-22T10:44:57.900Z,67.44
2023-03-22T10:45:57.875Z,66.97
2023-03-22T10:46:57.869Z,67.27
2023-03-22T10:47:57.977Z,67.68
2023-03-22T10:48:57.798Z,68.31
2023-03-22T10:49:57.774Z,68.01
2023-03-22T10:50:57.749Z,68.21
2023-03-22T10:51:57.724Z,67.60
2023-03-22T10:52:57.733Z,68.08
2023-03-22T10:53:57.653Z,67.57
2023-03-22T10:55:01.271Z,67.44
2023-03-22T10:55:57.615Z,66.43
2023-03-22T10:56:57.617Z,66.47
2023-03-22T11:02:43.504Z,65.42
2023-03-22T11:03:32.797Z,64.95
2023-03-22T11:04:32.765Z,65.56
2023-03-22T11:05:32.735Z,65.66
2023-03-22T11:06:32.709Z,67.10
2023-03-22T11:07:32.670Z,66.60
2023-03-22T11:08:32.709Z,66.50
2023-03-22T11:09:32.641Z,65.76
2023-03-22T11:10:32.672Z,67.20
2023-03-22T11:11:32.577Z,65.76
2023-03-22T11:12:32.542Z,66.39
2023-03-22T11:13:32.530Z,66.09
2023-03-22T11:14:32.736Z,66.67
2023-03-22T11:15:32.458Z,66.56
2023-03-22T11:16:32.489Z,66.56
2023-03-22T11:17:32.412Z,65.73
2023-03-22T11:18:32.377Z,66.13
2023-03-22T11:19:32.350Z,65.73
2023-03-22T11:20:32.475Z,64.72
2023-03-22T11:21:32.309Z,64.99
2023-03-22T11:22:32.285Z,64.79
2023-03-22T11:23:32.246Z,65.06
2023-03-22T11:24:32.231Z,64.95
2023-03-22T11:25:32.186Z,65.16
2023-03-22T11:26:32.215Z,65.06
2023-03-22T11:27:32.130Z,64.95
2023-03-22T11:28:32.107Z,64.95
2023-03-22T11:29:32.087Z,65.16
2023-03-22T11:30:32.104Z,64.05
2023-03-22T11:31:32.104Z,64.69
2023-03-22T11:32:32.068Z,65.09
2023-03-22T11:33:31.967Z,65.62
2023-03-22T11:34:31.958Z,65.79
2023-03-22T11:35:31.931Z,65.29
2023-03-22T11:36:31.892Z,66.39
2023-03-22T11:37:31.932Z,66.30
2023-03-22T11:38:31.832Z,65.99
2023-03-22T11:39:31.825Z,65.39
2023-03-22T11:40:31.793Z,66.02
2023-03-22T11:41:31.762Z,66.63
2023-03-22T11:42:31.766Z,66.22
2023-03-22T11:43:31.751Z,65.72
2023-03-22T11:44:31.686Z,66.02
2023-03-22T11:45:31.650Z,67.03
2023-03-22T11:46:31.731Z,66.63
2023-03-22T11:47:31.660Z,66.60
2023-03-22T11:48:31.739Z,65.39
2023-03-22T11:49:31.587Z,66.47
2023-03-22T11:50:31.505Z,65.99
2023-03-22T11:51:31.473Z,66.47
2023-03-22T11:52:31.447Z,65.49
2023-03-22T11:53:31.427Z,65.76
2023-03-22T11:54:31.390Z,65.49
2023-03-22T11:55:31.420Z,66.60
2023-03-22T11:56:31.436Z,66.30
2023-03-22T11:57:31.308Z,66.60
2023-03-22T11:58:31.275Z,65.99
2023-03-22T11:59:31.255Z,66.09
2023-03-22T12:00:31.234Z,67.43
2023-03-22T12:01:31.199Z,67.23
2023-03-22T12:02:31.375Z,66.70
2023-03-22T12:03:31.426Z,67.23
2023-03-22T12:04:31.137Z,66.30
2023-03-22T12:05:31.102Z,67.33
2023-03-22T12:06:31.088Z,66.90
2023-03-22T12:07:31.070Z,65.92
2023-03-22T12:10:09.835Z,66.66
2023-03-22T12:11:09.783Z,67.36
2023-03-22T12:12:09.756Z,67.67
2023-03-22T12:13:09.799Z,67.77
2023-03-22T12:14:09.729Z,67.27
2023-03-22T12:15:09.664Z,67.07
2023-03-22T12:16:09.685Z,67.57
2023-03-22T12:17:09.619Z,67.36
2023-03-22T12:18:09.606Z,67.77
2023-03-22T12:19:09.621Z,67.77
2023-03-22T12:20:09.533Z,67.27
2023-03-22T12:21:09.494Z,66.76
2023-03-22T12:22:09.464Z,67.77
2023-03-22T12:23:09.448Z,68.17
2023-03-22T12:24:09.409Z,68.07
2023-03-22T12:25:09.436Z,68.17
2023-03-22T12:26:09.354Z,68.68
2023-03-22T12:27:09.353Z,67.87
2023-03-22T12:28:09.297Z,66.86
2023-03-22T12:29:09.268Z,67.97
2023-03-22T12:30:09.243Z,68.27
2023-03-22T12:31:09.298Z,67.57
2023-03-22T12:32:09.185Z,68.21
2023-03-22T12:33:09.189Z,68.21
2023-03-22T12:34:09.154Z,68.07
2023-03-22T12:35:17.162Z,68.48
2023-03-22T12:36:09.093Z,68.88
2023-03-22T12:37:09.091Z,68.68
2023-03-22T12:38:09.006Z,68.98
2023-03-22T12:39:08.974Z,68.81
2023-03-22T12:40:08.947Z,67.67
2023-03-22T12:41:08.984Z,68.27
2023-03-22T12:42:08.899Z,68.57
2023-03-22T12:43:08.917Z,68.44
2023-03-22T12:44:08.837Z,67.20
2023-03-22T12:45:08.802Z,66.70
2023-03-22T12:46:08.776Z,67.20
2023-03-22T12:47:08.813Z,66.09
2023-03-22T12:48:08.813Z,65.69
2023-03-22T12:49:09.022Z,65.99
2023-03-22T12:50:08.664Z,65.99
2023-03-22T12:51:08.639Z,65.06
2023-03-22T12:52:08.611Z,64.89
2023-03-22T12:53:08.578Z,65.09
2023-03-22T12:54:08.583Z,64.98
2023-03-22T12:55:08.573Z,64.78
2023-03-22T12:56:08.491Z,64.58
2023-03-22T12:57:08.507Z,64.89
2023-03-22T12:58:08.446Z,65.09